Detall de PIREP

Printer-friendly versionPDF version

[2012/10/21 13:17:00]
Flight IATA:CT1005
Pilot Number:037
Company ICAO:CAT
Aircraft Type:B752/E
PAX:161
Aircraft Registration:PAX
Departing Airport: EDDV
Destination Airport: EBOS
Alternate Airport:EBBR
Online: VATSIM
Route:OSN L980 ETEBO/N0381F280 UL980 PAM/N0407F270 UN872 WOODY/N0404F280 UN872 NIK
Flight Level:F240
No Slew and time accel
No pause
Crash detect
Detect pilot in Cockpit between each 30 and 45 minutes
13:17 Zero fuel Weight: 171876 Lbs, Fuel Weight: 18595 Lbs
13:17 VATSIM:EDDV 211250Z 09007KT CAVOK 21/14 Q1018 NOSIG
13:17 VATSIM:EBOS 211250Z 05009KT 030V090 6000 BKN005 12/10 Q1016 TEMPO 4500 BR BKN004
13:30 Parking Brakes off
13:37 Take-off
13:37 Take off Weight: 189347 Lbs
13:37 Wind: 089º @ 007 Knots Heading: 092º
13:37 POS N52º 27´ 15´´ E009º 42´ 00´´
13:37 Gear Up: 195 Knots
13:37 Flaps:2 at 195 Knots
13:37 Flaps:1 at 215 Knots
13:37 Flaps:0 at217 Knots
13:50 TOC
13:50 Fuel Weight: 14178 Lb
13:52 Wind:350º@031 Knots Heading: 269º Ground Speed: 461 Knots Altitude 24110 ft
14:07 Wind:050º@038 Knots Heading: 207º Ground Speed: 493 Knots Altitude 24114 ft
14:11 TOD
14:11 Fuel Weight: 11014 Lb
14:22 Wind:058º@019 Knots Heading: 271º Ground Speed: 273 Knots Altitude 11410 ft
14:30 Flaps:1 at 213 Knots
14:31 Flaps:2 at 184 Knots
14:32 Flaps:3 at 165 Knots
14:32 Gear Down: 159 Knots
14:33 Flaps:4 at 145 Knots
14:34 Flaps:5 at 146 Knots
14:35 Flaps:6 at 133 Knots
14:35 TouchDown:Rate -362 ft/min Speed: 117 Knots
14:36 VATSIM:EBOS 211350Z 05010KT 4000 BR BKN004 13/11 Q1016 NOSIG
14:36 Land
14:36 Wind:053º@010 Knots
14:36 Heading: 075º
14:36 Flight Duration: 00:59
14:36 Landing Weight: 180836 Lbs
14:36 POS N51º 11´ 55´´ E002º 52´ 00´´
14:40 Parking brakes on
14:40 Block to Block Duration: 01:10
14:40 Final Fuel: 8276 Lbls
14:40 Spent Fuel: 10319 Lbls
14:40 Flight Length: 245 NM
14:40 TOD Land Length: 67 NM

Exportar CSV

Powered by Drupal - Modified by Danger4k